createdAt,value
2024-03-12T05:35:18.744Z,9.16
2024-03-12T05:38:37.699Z,9.16
2024-03-12T05:42:11.929Z,8.84
2024-03-12T05:45:43.471Z,8.83
2024-03-12T05:48:58.036Z,8.99
2024-03-12T05:52:13.823Z,9.18
2024-03-12T05:55:28.131Z,9.31
2024-03-12T05:58:43.024Z,9.50
2024-03-12T06:02:00.832Z,9.52
2024-03-12T06:05:15.822Z,9.54
2024-03-12T06:08:31.835Z,9.65
2024-03-12T06:11:49.094Z,9.55
2024-03-12T06:15:07.853Z,9.59
2024-03-12T06:18:26.994Z,9.14
2024-03-12T06:21:41.515Z,9.11
2024-03-12T06:25:11.834Z,9.43
2024-03-12T06:28:29.098Z,9.14
2024-03-12T06:31:43.520Z,8.96
2024-03-12T06:34:58.037Z,9.24
2024-03-12T06:38:12.251Z,9.26
2024-03-12T06:41:28.128Z,9.73
2024-03-12T06:44:44.407Z,9.37
2024-03-12T06:48:01.785Z,9.07
2024-03-12T06:51:38.198Z,9.34
2024-03-12T06:54:54.070Z,11.27
2024-03-12T06:58:15.491Z,12.01
2024-03-12T07:01:42.934Z,12.77
2024-03-12T07:05:08.360Z,12.86
2024-03-12T07:08:29.609Z,12.37
2024-03-12T07:12:11.687Z,12.49
2024-03-12T07:15:43.057Z,12.40
2024-03-12T07:19:25.887Z,14.23
2024-03-12T07:22:53.306Z,12.64
2024-03-12T07:26:10.090Z,11.85
2024-03-12T07:29:30.280Z,12.67
2024-03-12T07:32:49.540Z,12.31
2024-03-12T07:36:24.369Z,12.03
2024-03-12T07:39:48.758Z,13.97
2024-03-12T07:43:19.886Z,13.24
2024-03-12T07:47:10.526Z,13.46
2024-03-12T07:50:34.772Z,12.41
2024-03-12T07:53:56.678Z,12.20
2024-03-12T07:57:27.028Z,11.53
2024-03-12T08:00:52.708Z,11.33
2024-03-12T08:04:32.176Z,11.28
2024-03-12T08:07:59.652Z,11.85
2024-03-12T08:11:20.556Z,11.79
2024-03-12T08:14:43.989Z,12.39
2024-03-12T08:18:20.550Z,12.44
2024-03-12T08:21:43.792Z,12.23
2024-03-12T08:25:03.621Z,11.81
2024-03-12T08:28:23.354Z,12.16
2024-03-12T08:31:47.642Z,11.93
2024-03-12T08:35:40.399Z,12.58
2024-03-12T08:38:55.624Z,12.44
2024-03-12T08:42:47.570Z,12.34
2024-03-12T08:46:14.036Z,12.14
2024-03-12T08:49:40.472Z,14.17
2024-03-12T08:53:02.039Z,14.94
2024-03-12T08:56:21.690Z,16.30
2024-03-12T08:59:59.786Z,16.13
2024-03-12T09:03:32.615Z,14.57
2024-03-12T09:07:01.749Z,14.73
2024-03-12T09:10:24.264Z,13.85
2024-03-12T09:13:43.866Z,14.10
2024-03-12T09:17:11.887Z,14.34
2024-03-12T09:20:29.349Z,12.73
2024-03-12T09:27:26.639Z,13.40
2024-03-12T09:30:51.601Z,13.13
2024-03-12T09:34:11.020Z,12.86
2024-03-12T09:37:59.660Z,13.13
2024-03-12T09:41:37.187Z,13.09
2024-03-12T09:45:19.483Z,12.51
2024-03-12T09:48:38.308Z,12.89
2024-03-12T09:51:53.892Z,12.23
2024-03-12T09:55:12.196Z,12.56
2024-03-12T09:58:26.637Z,12.54
2024-03-12T10:01:40.773Z,12.57
2024-03-12T10:04:58.376Z,12.20
2024-03-12T10:08:31.002Z,12.00
2024-03-12T10:11:46.794Z,12.10
2024-03-12T10:15:07.208Z,11.85
2024-03-12T10:18:41.382Z,11.77
2024-03-12T10:22:09.387Z,12.04
2024-03-12T10:25:31.427Z,11.90
2024-03-12T10:28:54.517Z,12.10
2024-03-12T10:32:20.000Z,11.88
2024-03-12T10:35:48.595Z,12.12
2024-03-12T10:39:09.333Z,12.35
2024-03-12T10:42:41.452Z,12.28
2024-03-12T10:46:17.643Z,12.11
2024-03-12T10:49:45.162Z,12.46
2024-03-12T10:53:03.319Z,12.15
2024-03-12T11:04:25.836Z,12.69
2024-03-12T11:07:46.958Z,12.95
2024-03-12T11:11:08.368Z,13.14
2024-03-12T11:14:34.699Z,13.52
2024-03-12T11:17:53.316Z,12.94
2024-03-12T11:21:13.263Z,13.31
2024-03-12T11:24:30.492Z,12.64
2024-03-12T11:28:32.865Z,12.82
2024-03-12T11:31:52.861Z,12.72
2024-03-12T11:35:18.659Z,12.52
2024-03-12T11:38:36.853Z,12.39
2024-03-12T11:42:36.028Z,12.54
2024-03-12T11:45:56.033Z,12.48
2024-03-12T11:49:36.278Z,12.59
2024-03-12T11:52:56.866Z,12.14
2024-03-12T11:56:53.078Z,12.31
2024-03-12T12:00:13.515Z,12.20
2024-03-12T12:03:40.822Z,12.50
2024-03-12T12:07:05.594Z,12.45
2024-03-12T12:11:09.234Z,12.70
2024-03-12T12:14:28.111Z,12.52
2024-03-12T12:17:49.592Z,12.40
2024-03-12T12:21:26.715Z,11.96
2024-03-12T12:24:44.762Z,11.96
2024-03-12T12:28:10.252Z,12.21
2024-03-12T12:31:30.248Z,12.06
2024-03-12T12:35:07.353Z,12.04
2024-03-12T12:39:02.749Z,11.82
2024-03-12T12:46:19.054Z,11.89
2024-03-12T12:49:52.763Z,11.80
2024-03-12T12:53:22.154Z,11.83
2024-03-12T12:56:58.274Z,11.81
2024-03-12T13:00:45.868Z,11.56
2024-03-12T13:04:13.043Z,11.68
2024-03-12T13:07:39.078Z,11.53
2024-03-12T13:11:19.819Z,11.65
2024-03-12T13:14:39.972Z,11.49
2024-03-12T13:18:00.261Z,11.50
2024-03-12T13:21:17.058Z,11.38
2024-03-12T13:24:32.644Z,11.50
2024-03-12T13:28:07.242Z,11.68
2024-03-12T13:31:38.503Z,11.46
2024-03-12T13:35:00.378Z,11.53
2024-03-12T13:38:17.541Z,11.60
2024-03-12T13:41:38.957Z,11.76
2024-03-12T13:45:01.617Z,11.51
2024-03-12T13:48:22.438Z,11.70
2024-03-12T13:51:38.671Z,11.66
2024-03-12T13:54:59.111Z,11.73
2024-03-12T13:58:53.298Z,11.47
2024-03-12T14:02:09.719Z,11.31
2024-03-12T14:05:27.034Z,11.47
2024-03-12T14:08:43.680Z,11.36
2024-03-12T14:12:17.607Z,11.51
2024-03-12T14:16:11.385Z,11.47
2024-03-12T14:19:27.465Z,11.47
2024-03-12T14:22:45.265Z,11.60
2024-03-12T14:25:59.444Z,11.39
2024-03-12T14:29:24.472Z,11.62
2024-03-12T14:36:22.812Z,11.38
2024-03-12T14:39:46.157Z,11.64
2024-03-12T14:43:06.130Z,11.59
2024-03-12T14:46:59.447Z,11.56
2024-03-12T14:50:45.071Z,11.47
2024-03-12T14:53:59.846Z,11.55
2024-03-12T14:57:16.328Z,11.50
2024-03-12T15:00:30.988Z,11.48
2024-03-12T15:03:46.917Z,11.36
2024-03-12T15:07:01.214Z,11.62
2024-03-12T15:10:24.129Z,11.59
2024-03-12T15:13:38.754Z,11.60
2024-03-12T15:16:53.280Z,11.59
2024-03-12T15:20:16.285Z,11.55
2024-03-12T15:23:31.771Z,11.53
2024-03-12T15:26:50.095Z,11.57
2024-03-12T15:30:04.473Z,11.61
2024-03-12T15:33:19.371Z,11.37
2024-03-12T15:36:35.105Z,11.52
2024-03-12T15:39:49.410Z,11.41
2024-03-12T15:43:06.793Z,11.29
2024-03-12T15:46:21.716Z,11.37
2024-03-12T15:49:35.931Z,11.30
2024-03-12T15:52:52.335Z,11.43
2024-03-12T15:56:08.193Z,11.36
2024-03-12T15:59:22.561Z,11.27
2024-03-12T16:02:37.133Z,11.29
2024-03-12T16:05:51.664Z,11.31
2024-03-12T16:09:08.494Z,11.43
2024-03-12T16:12:22.981Z,11.45
2024-03-12T16:15:37.337Z,11.51
2024-03-12T16:18:51.784Z,11.37
2024-03-12T16:22:07.158Z,11.28
2024-03-12T16:25:23.211Z,11.28
2024-03-12T16:28:37.644Z,11.40
2024-03-12T16:31:52.455Z,11.26
2024-03-12T16:35:09.193Z,11.20
